Time;durP1;ratioP1;P1;durP2;ratioP2;P2;SDS_P1;SDS_P2;PMS_P1;PMS_P2;Temp;Humidity;BMP_temperature;BMP_pressure;BME280_temperature;BME280_humidity;BME280_pressure;Samples;Min_cycle;Max_cycle;Signal;HPM_P1;HPM_P2
2021/09/17 00:01:35;;;;;;;24.23;11.87;;;;;;;18.21;96.28;99554.56;6246603;28;20136;-74
2021/09/17 00:04:36;;;;;;;19.40;10.90;;;;;;;18.20;96.10;99560.00;6246639;28;20052;-74
2021/09/17 00:07:37;;;;;;;22.10;11.43;;;;;;;18.24;94.92;99562.19;6246728;28;20132;-76
2021/09/17 00:10:38;;;;;;;19.30;10.93;;;;;;;18.25;95.24;99560.38;6246484;28;20050;-76
2021/09/17 00:13:39;;;;;;;18.05;11.43;;;;;;;18.28;94.55;99554.78;6245716;28;20120;-73
2021/09/17 00:16:40;;;;;;;23.00;12.17;;;;;;;18.23;95.69;99560.53;6245207;28;20046;-73
2021/09/17 00:19:41;;;;;;;19.97;11.37;;;;;;;18.21;94.80;99554.56;6245815;28;20046;-73
2021/09/17 00:22:43;;;;;;;15.00;11.77;;;;;;;18.16;95.67;99543.66;6249991;28;20400;-74
2021/09/17 00:25:44;;;;;;;;;;;;;;;18.21;96.47;99541.38;6267422;28;20041;-73
2021/09/17 00:28:47;;;;;;;20.85;12.32;;;;;;;18.11;97.29;99544.09;6266790;28;19944;-74
2021/09/17 00:31:48;;;;;;;17.70;12.07;;;;;;;18.09;99.37;99547.88;6249853;28;20183;-73
2021/09/17 00:34:49;;;;;;;22.63;12.20;;;;;;;18.05;99.98;99546.53;6251002;28;20472;-73
2021/09/17 00:37:51;;;;;;;27.20;12.50;;;;;;;18.03;100.00;99536.13;6251121;28;20046;-75
2021/09/17 00:40:51;;;;;;;;;;;;;;;18.00;100.00;99533.00;6251326;28;20091;-75
2021/09/17 00:43:52;;;;;;;18.88;12.25;;;;;;;18.00;99.14;99536.44;6266312;28;19925;-73
2021/09/17 00:46:55;;;;;;;25.07;12.50;;;;;;;18.03;98.96;99543.22;6266232;28;20452;-73
2021/09/17 00:49:55;;;;;;;22.50;12.18;;;;;;;18.00;98.90;99539.09;6249801;28;20052;-75
2021/09/17 00:52:56;;;;;;;18.43;12.23;;;;;;;17.92;100.00;99531.94;6250512;28;20260;-75
2021/09/17 00:55:58;;;;;;;23.00;13.60;;;;;;;17.94;99.67;99537.06;6249783;28;20129;-73
2021/09/17 00:58:59;;;;;;;19.20;12.07;;;;;;;18.03;97.47;99530.03;6266436;28;20103;-75
2021/09/17 01:02:00;;;;;;;17.27;12.17;;;;;;;18.07;96.67;99534.00;6249161;28;20069;-74
2021/09/17 01:05:02;;;;;;;20.27;11.43;;;;;;;18.08;96.96;99531.22;6249504;28;20498;-75
2021/09/17 01:08:03;;;;;;;;;;;;;;;18.11;96.39;99525.63;6250858;28;20072;-75
2021/09/17 01:11:04;;;;;;;19.80;10.27;;;;;;;18.12;96.32;99522.00;6250108;28;19920;-75
2021/09/17 01:14:06;;;;;;;18.83;10.47;;;;;;;18.13;96.46;99528.94;6249030;28;20577;-75
2021/09/17 01:17:07;;;;;;;16.60;9.40;;;;;;;18.15;96.61;99523.50;6248998;28;20041;-73
2021/09/17 01:20:15;;;;;;;25.33;10.27;;;;;;;18.14;96.59;99521.88;6282389;28;20064;-73
2021/09/17 01:23:17;;;;;;;22.05;9.30;;;;;;;18.14;96.93;99519.22;6249960;28;20060;-73
2021/09/17 01:26:18;;;;;;;;;;;;;;;18.11;96.76;99515.06;6250317;28;20037;-75
2021/09/17 01:29:20;;;;;;;20.33;9.90;;;;;;;18.06;98.11;99503.34;6249757;28;19921;-73
2021/09/17 01:32:21;;;;;;;23.48;9.13;;;;;;;18.05;98.31;99504.31;6264174;28;20059;-73
2021/09/17 01:35:23;;;;;;;21.27;9.87;;;;;;;18.09;98.14;99497.72;6281703;28;20440;-73
2021/09/17 01:38:28;;;;;;;21.00;9.93;;;;;;;18.11;98.98;99498.41;6249466;28;20050;-73
2021/09/17 01:41:29;;;;;;;15.77;10.43;;;;;;;18.08;99.37;99482.88;6249426;28;20053;-76
2021/09/17 01:44:36;;;;;;;26.13;9.93;;;;;;;18.09;99.16;99471.34;6248456;28;20140;-75
2021/09/17 01:47:38;;;;;;;14.40;10.05;;;;;;;18.07;99.71;99475.94;6249389;28;20053;-75
2021/09/17 01:50:39;;;;;;;21.88;10.55;;;;;;;18.01;100.00;99469.47;6249154;28;20561;-73
2021/09/17 01:53:40;;;;;;;16.07;10.27;;;;;;;18.09;99.73;99471.34;6248060;28;20550;-73
2021/09/17 01:56:41;;;;;;;15.32;10.15;;;;;;;18.16;98.83;99461.81;6249270;28;20041;-73
2021/09/17 01:59:42;;;;;;;18.40;10.03;;;;;;;18.17;98.25;99463.47;6248034;28;20407;-75
2021/09/17 02:02:42;;;;;;;18.40;10.13;;;;;;;18.11;98.72;99462.25;6264338;28;20132;-74
2021/09/17 02:05:43;;;;;;;26.55;11.40;;;;;;;18.13;99.12;99455.00;6247732;28;20061;-73
2021/09/17 02:08:44;;;;;;;18.08;9.65;;;;;;;18.19;99.12;99458.84;6248795;28;20045;-73
2021/09/17 02:11:45;;;;;;;19.70;10.20;;;;;;;18.20;98.92;99459.66;6263914;28;20076;-75
2021/09/17 02:14:46;;;;;;;21.00;10.43;;;;;;;18.11;99.22;99448.25;6247560;28;20087;-74
2021/09/17 02:17:47;;;;;;;15.10;9.83;;;;;;;18.20;99.07;99449.09;6263989;28;20041;-75
2021/09/17 02:20:48;;;;;;;18.15;10.38;;;;;;;18.22;99.00;99453.28;6280722;28;20046;-73
2021/09/17 02:23:49;;;;;;;15.50;10.10;;;;;;;18.32;98.24;99447.84;6247477;28;20473;-73
2021/09/17 02:26:50;;;;;;;16.75;10.07;;;;;;;18.26;98.66;99443.19;6247292;28;20045;-73
2021/09/17 02:29:51;;;;;;;20.27;10.60;;;;;;;18.21;99.87;99448.13;6248372;28;20392;-73
2021/09/17 02:32:52;;;;;;;15.33;9.43;;;;;;;18.24;98.60;99453.94;6246971;28;20046;-73
2021/09/17 02:35:53;;;;;;;13.60;10.00;;;;;;;18.20;99.44;99442.03;6248209;28;20053;-73
2021/09/17 02:38:54;;;;;;;15.02;9.57;;;;;;;18.27;99.82;99444.88;6247063;28;20042;-75
2021/09/17 02:41:55;;;;;;;13.17;9.77;;;;;;;18.29;99.98;99433.16;6246215;28;20042;-73
2021/09/17 02:44:56;;;;;;;22.10;9.93;;;;;;;18.30;100.00;99441.91;6279850;28;20046;-74
2021/09/17 02:47:57;;;;;;;20.63;10.20;;;;;;;18.35;100.00;99439.63;6263268;28;20085;-75
2021/09/17 02:50:57;;;;;;;15.87;10.30;;;;;;;18.45;100.00;99450.88;6248046;28;20071;-75
2021/09/17 02:53:59;;;;;;;18.70;9.60;;;;;;;18.52;100.00;99438.69;6246289;28;20077;-75
2021/09/17 02:56:59;;;;;;;16.50;9.47;;;;;;;18.66;100.00;99442.53;6247820;28;20050;-75
2021/09/17 03:00:00;;;;;;;17.33;9.73;;;;;;;18.54;100.00;99449.09;6246342;28;20171;-74
2021/09/17 03:03:01;;;;;;;20.10;10.73;;;;;;;18.42;100.00;99448.56;6247678;28;20077;-75
2021/09/17 03:06:02;;;;;;;19.92;11.23;;;;;;;18.30;100.00;99447.19;6248072;28;20043;-77
2021/09/17 03:09:03;;;;;;;25.27;11.83;;;;;;;18.00;100.00;99443.25;6245325;28;20049;-77
2021/09/17 03:12:05;;;;;;;26.08;13.18;;;;;;;17.62;100.00;99406.50;6246390;28;20381;-77
2021/09/17 03:15:06;;;;;;;23.50;13.30;;;;;;;17.43;100.00;99406.72;6230012;28;20056;-77
2021/09/17 03:18:07;;;;;;;29.38;12.98;;;;;;;17.61;100.00;99425.97;6246304;28;20068;-77
2021/09/17 03:21:08;;;;;;;29.88;13.23;;;;;;;17.58;100.00;99420.16;6246656;28;20037;-77
2021/09/17 03:24:10;;;;;;;22.87;13.63;;;;;;;17.50;100.00;99416.50;6263004;28;20164;-77
2021/09/17 03:27:11;;;;;;;19.05;13.07;;;;;;;17.49;100.00;99412.19;6246472;28;20534;-77
2021/09/17 03:30:13;;;;;;;25.20;13.40;;;;;;;17.50;100.00;99418.28;6246549;28;20037;-77
2021/09/17 03:33:15;;;;;;;27.27;13.43;;;;;;;17.64;100.00;99420.38;6263040;28;20045;-78
2021/09/17 03:36:16;;;;;;;30.85;12.75;;;;;;;17.78;100.00;99419.00;6246106;28;20034;-78
2021/09/17 03:39:17;;;;;;;23.20;12.53;;;;;;;17.77;100.00;99411.22;6246429;28;20033;-78
2021/09/17 03:42:18;;;;;;;19.13;12.35;;;;;;;17.71;100.00;99408.22;6247350;28;20098;-78
2021/09/17 03:45:19;;;;;;;24.38;13.27;;;;;;;17.66;100.00;99405.22;6246084;28;20041;-76
2021/09/17 03:48:20;;;;;;;24.80;14.15;;;;;;;17.61;100.00;99410.16;6245806;28;20542;-78
2021/09/17 03:51:21;;;;;;;21.77;13.98;;;;;;;17.65;100.00;99414.13;6246867;28;20046;-76
2021/09/17 03:54:24;;;;;;;22.93;13.93;;;;;;;17.66;100.00;99410.50;6265897;28;20063;-76
2021/09/17 03:57:25;;;;;;;21.77;13.93;;;;;;;17.59;100.00;99403.38;6255376;28;20041;-76
2021/09/17 04:00:26;;;;;;;26.93;14.27;;;;;;;17.56;100.00;99408.94;6253915;28;20040;-76
2021/09/17 04:03:27;;;;;;;25.40;14.63;;;;;;;17.55;100.00;99407.31;6255367;28;20388;-76
2021/09/17 04:06:28;;;;;;;21.75;13.73;;;;;;;17.57;100.00;99408.81;6270618;28;20120;-76
2021/09/17 04:09:29;;;;;;;25.13;14.37;;;;;;;17.61;100.00;99410.16;6255085;28;20061;-77
2021/09/17 04:12:29;;;;;;;22.47;14.23;;;;;;;17.57;100.00;99408.81;6253822;28;20052;-77
2021/09/17 04:15:30;;;;;;;23.27;14.07;;;;;;;17.61;100.00;99407.50;6254980;28;20048;-77
2021/09/17 04:18:31;;;;;;;22.27;14.53;;;;;;;17.55;100.00;99409.94;6237549;28;20128;-76
2021/09/17 04:21:32;;;;;;;27.13;14.95;;;;;;;17.54;100.00;99403.81;6253776;28;20051;-77
2021/09/17 04:24:33;;;;;;;25.57;14.63;;;;;;;17.50;100.00;99413.00;6237212;28;20133;-77
2021/09/17 04:27:35;;;;;;;24.17;14.45;;;;;;;17.58;100.00;99409.63;6254662;28;20049;-76
2021/09/17 04:30:35;;;;;;;25.80;14.98;;;;;;;17.60;100.00;99399.75;6285958;28;20045;-76
2021/09/17 04:33:36;;;;;;;28.07;14.23;;;;;;;17.62;100.00;99395.13;6253194;28;20096;-77
2021/09/17 04:36:37;;;;;;;24.73;13.60;;;;;;;17.66;100.00;99399.13;6253301;28;20503;-77
2021/09/17 04:39:38;;;;;;;20.87;13.37;;;;;;;17.63;100.00;99404.72;6253092;28;20037;-76
2021/09/17 04:42:39;;;;;;;25.40;14.37;;;;;;;17.66;100.00;99399.94;6253186;28;20045;-77
2021/09/17 04:45:40;;;;;;;26.07;14.03;;;;;;;17.70;100.00;99395.19;6253292;28;20076;-76
2021/09/17 04:48:41;;;;;;;21.20;13.83;;;;;;;17.63;100.00;99389.72;6269992;28;20850;-76
2021/09/17 04:51:42;;;;;;;22.95;14.30;;;;;;;17.63;100.00;99394.16;6269839;28;20056;-76
2021/09/17 04:54:43;;;;;;;16.97;13.17;;;;;;;17.59;100.00;99393.66;6252711;28;20038;-76
2021/09/17 04:57:43;;;;;;;24.43;13.77;;;;;;;17.55;100.00;99389.66;6252930;28;20079;-76
2021/09/17 05:00:44;;;;;;;22.60;13.60;;;;;;;17.58;100.00;99389.34;6253102;28;20046;-79
2021/09/17 05:03:45;;;;;;;28.57;14.17;;;;;;;17.63;100.00;99388.91;6236864;28;20080;-79
2021/09/17 05:06:46;;;;;;;25.80;13.27;;;;;;;17.72;100.00;99391.41;6249660;28;20049;-79
2021/09/17 05:09:47;;;;;;;26.70;14.00;;;;;;;17.69;100.00;99386.47;6231087;28;20510;-76
2021/09/17 05:12:48;;;;;;;24.63;12.50;;;;;;;17.72;100.00;99393.22;6263832;28;20052;-76
2021/09/17 05:15:49;;;;;;;28.17;13.30;;;;;;;17.76;100.00;99389.28;6264106;28;20045;-76
2021/09/17 05:18:50;;;;;;;19.30;12.43;;;;;;;17.79;100.00;99389.00;6247508;28;20037;-76
2021/09/17 05:21:52;;;;;;;25.43;11.80;;;;;;;17.85;100.00;99398.97;6264023;28;20049;-76
2021/09/17 05:24:53;;;;;;;27.05;11.90;;;;;;;17.90;100.00;99398.47;6247166;28;20503;-76
2021/09/17 05:27:54;;;;;;;22.35;10.65;;;;;;;17.86;100.00;99386.59;6263688;28;20052;-76
2021/09/17 05:30:55;;;;;;;27.48;10.80;;;;;;;17.86;100.00;99387.41;6247075;28;20045;-77
2021/09/17 05:33:55;;;;;;;18.53;9.80;;;;;;;17.82;100.00;99386.03;6247108;28;20064;-76
2021/09/17 05:36:56;;;;;;;19.90;9.27;;;;;;;17.77;100.00;99376.91;6248405;28;20451;-76
2021/09/17 05:39:57;;;;;;;24.42;10.02;;;;;;;17.77;100.00;99383.06;6246774;28;20060;-76
2021/09/17 05:42:58;;;;;;;22.27;9.20;;;;;;;17.68;100.00;99383.97;6246914;28;20049;-76
2021/09/17 05:45:59;;;;;;;21.40;8.55;;;;;;;17.66;100.00;99384.13;6279834;28;20790;-77
2021/09/17 05:49:00;;;;;;;23.92;7.47;;;;;;;17.62;100.00;99382.78;6279901;28;20511;-76
2021/09/17 05:52:01;;;;;;;22.67;8.02;;;;;;;17.58;100.00;99391.97;6279418;28;20141;-77
2021/09/17 05:55:04;;;;;;;23.88;8.35;;;;;;;17.58;100.00;99396.44;6262819;28;20041;-77
2021/09/17 05:58:05;;;;;;;22.55;8.68;;;;;;;17.48;100.00;99388.59;6247621;28;20045;-77
2021/09/17 06:01:07;;;;;;;21.63;8.07;;;;;;;17.41;100.00;99380.50;6246521;28;20048;-79
2021/09/17 06:04:09;;;;;;;19.05;7.55;;;;;;;17.44;100.00;99369.66;6262539;28;20099;-76
2021/09/17 06:07:10;;;;;;;23.85;8.20;;;;;;;17.40;100.00;99368.31;6262697;28;20049;-76
2021/09/17 06:10:13;;;;;;;19.55;7.72;;;;;;;17.43;100.00;99357.44;6279505;28;20530;-77
2021/09/17 06:13:14;;;;;;;23.10;8.63;;;;;;;17.44;100.00;99353.81;6246125;28;20037;-79
2021/09/17 06:16:15;;;;;;;21.27;7.90;;;;;;;17.45;100.00;99349.38;6262345;28;20132;-76
2021/09/17 06:19:15;;;;;;;21.35;8.02;;;;;;;17.49;100.00;99340.16;6244969;28;20079;-76
2021/09/17 06:22:16;;;;;;;28.00;9.05;;;;;;;17.49;100.00;99343.63;6262342;28;20385;-76
2021/09/17 06:25:17;;;;;;;23.40;8.50;;;;;;;17.51;100.00;99341.66;6262361;28;20048;-77
2021/09/17 06:28:18;;;;;;;21.37;8.47;;;;;;;17.48;100.00;99341.13;6278926;28;20041;-77
2021/09/17 06:31:19;;;;;;;29.27;8.63;;;;;;;17.51;100.00;99339.03;6261953;28;20068;-77
2021/09/17 06:34:20;;;;;;;21.73;8.00;;;;;;;17.49;100.00;99338.34;6262185;28;20046;-77
2021/09/17 06:37:21;;;;;;;22.53;7.70;;;;;;;17.50;100.00;99333.91;6278396;28;20138;-77
2021/09/17 06:40:26;;;;;;;27.10;8.10;;;;;;;17.62;100.00;99334.47;6278617;28;20033;-77
2021/09/17 06:43:27;;;;;;;33.38;8.63;;;;;;;17.64;100.00;99328.03;6246519;28;20099;-77
2021/09/17 06:46:27;;;;;;;21.00;8.50;;;;;;;17.65;100.00;99332.34;6278380;28;20480;-76
2021/09/17 06:49:28;;;;;;;25.47;8.30;;;;;;;17.66;100.00;99327.91;6278288;28;20045;-76
2021/09/17 06:52:29;;;;;;;20.80;8.27;;;;;;;17.64;100.00;99324.59;6278159;28;20053;-76
2021/09/17 06:55:31;;;;;;;30.47;9.40;;;;;;;17.73;100.00;99329.75;6278305;28;20096;-76
2021/09/17 06:58:32;;;;;;;;;;;;;;;17.79;100.00;99323.03;6245647;28;20048;-76
2021/09/17 07:01:33;;;;;;;26.42;8.55;;;;;;;17.81;100.00;99323.69;6244960;28;19921;-77
2021/09/17 07:04:34;;;;;;;29.08;8.05;;;;;;;17.79;100.00;99323.03;6277955;28;20046;-77
2021/09/17 07:07:35;;;;;;;23.67;8.50;;;;;;;17.90;100.00;99316.66;6261406;28;20511;-76
2021/09/17 07:10:38;;;;;;;20.33;8.47;;;;;;;18.00;100.00;99319.19;6277803;28;20463;-76
2021/09/17 07:13:40;;;;;;;21.27;8.10;;;;;;;17.98;100.00;99318.53;6277695;28;20357;-76
2021/09/17 07:16:41;;;;;;;24.17;9.40;;;;;;;17.94;100.00;99318.00;6245815;28;20116;-76
2021/09/17 07:19:41;;;;;;;26.70;8.30;;;;;;;17.98;100.00;99313.25;6261214;28;20285;-76
2021/09/17 07:22:43;;;;;;;20.45;8.00;;;;;;;17.99;100.00;99317.53;6277721;28;20068;-76
2021/09/17 07:25:43;;;;;;;25.40;8.70;;;;;;;17.95;100.00;99321.47;6261019;28;20044;-76
2021/09/17 07:28:44;;;;;;;24.13;9.03;;;;;;;17.99;100.00;99317.53;6260737;28;20440;-76
2021/09/17 07:31:45;;;;;;;17.45;7.85;;;;;;;18.09;100.00;99315.59;6277357;28;20139;-77
2021/09/17 07:34:46;;;;;;;25.43;8.80;;;;;;;18.05;100.00;99308.97;6260889;28;20064;-77
2021/09/17 07:37:47;;;;;;;22.92;8.68;;;;;;;18.09;100.00;99318.22;6277326;28;20488;-76
2021/09/17 07:40:48;;;;;;;26.37;8.70;;;;;;;18.21;100.00;99309.03;6245490;28;20041;-77
2021/09/17 07:43:49;;;;;;;26.00;8.50;;;;;;;18.30;100.00;99312.50;6245414;28;20091;-76
2021/09/17 07:46:50;;;;;;;24.20;7.87;;;;;;;18.32;100.00;99306.09;6260833;28;20055;-76
2021/09/17 07:49:50;;;;;;;22.02;8.48;;;;;;;18.32;100.00;99307.88;6244077;28;20048;-76
2021/09/17 07:52:51;;;;;;;22.40;7.60;;;;;;;18.34;100.00;99300.63;6260363;28;20431;-76
2021/09/17 07:55:53;;;;;;;23.02;7.70;;;;;;;18.42;100.00;99287.44;6277383;28;20512;-76
2021/09/17 07:58:54;;;;;;;19.75;7.95;;;;;;;18.44;100.00;99287.28;6260491;28;20069;-77
2021/09/17 08:01:55;;;;;;;23.70;8.60;;;;;;;18.57;100.00;99289.44;6260506;28;20042;-76
2021/09/17 08:04:56;;;;;;;26.60;9.07;;;;;;;18.57;100.00;99265.66;6245104;28;20056;-76
2021/09/17 08:07:56;;;;;;;22.90;7.57;;;;;;;18.67;100.00;99283.00;6243821;28;20480;-76
2021/09/17 08:10:57;;;;;;;20.50;8.67;;;;;;;18.60;100.00;99283.84;6243868;28;20420;-76
2021/09/17 08:13:58;;;;;;;22.80;8.35;;;;;;;18.63;100.00;99284.31;6243847;28;20041;-76
2021/09/17 08:16:59;;;;;;;30.87;8.27;;;;;;;18.71;100.00;99273.75;6260403;28;20338;-77
2021/09/17 08:20:00;;;;;;;26.43;8.60;;;;;;;18.77;100.00;99269.63;6245045;28;20047;-77
2021/09/17 08:23:01;;;;;;;18.83;7.90;;;;;;;18.81;100.00;99263.06;6244933;28;20050;-77
2021/09/17 08:26:03;;;;;;;20.70;7.63;;;;;;;18.80;100.00;99273.78;6276884;28;20124;-76
2021/09/17 08:29:04;;;;;;;22.40;8.13;;;;;;;18.83;100.00;99266.34;6259890;28;20054;-77
2021/09/17 08:32:06;;;;;;;24.57;7.23;;;;;;;18.84;100.00;99268.03;6260101;28;20125;-76
2021/09/17 08:35:09;;;;;;;21.10;7.05;;;;;;;19.00;100.00;99253.13;6260140;28;20120;-79
2021/09/17 08:38:10;;;;;;;20.88;6.78;;;;;;;19.23;100.00;99246.16;6243537;28;20042;-76
2021/09/17 08:41:11;;;;;;;19.53;7.07;;;;;;;19.31;100.00;99240.84;6245162;28;20499;-76
2021/09/17 08:44:13;;;;;;;21.70;8.27;;;;;;;19.35;100.00;99237.84;6264669;28;20065;-77
2021/09/17 08:47:17;;;;;;;16.75;6.80;;;;;;;19.42;100.00;99233.56;6248208;28;20287;-75
2021/09/17 08:50:20;;;;;;;23.33;6.82;;;;;;;19.44;100.00;99234.19;6231903;28;20053;-77
2021/09/17 08:53:21;;;;;;;18.15;6.82;;;;;;;19.48;100.00;99238.16;6248785;28;20050;-77
2021/09/17 08:56:22;;;;;;;16.00;7.57;;;;;;;19.46;100.00;99233.03;6264661;28;20041;-76
2021/09/17 08:59:23;;;;;;;22.57;7.50;;;;;;;19.41;100.00;99231.88;6281166;28;20484;-77
2021/09/17 09:02:29;;;;;;;21.53;8.07;;;;;;;19.39;100.00;99223.28;6281092;28;20045;-77
2021/09/17 09:05:32;;;;;;;15.88;5.85;;;;;;;19.40;100.00;99231.06;6280877;28;20061;-77
2021/09/17 09:08:33;;;;;;;14.32;6.72;;;;;;;19.44;100.00;99228.91;6249064;28;20041;-77
2021/09/17 09:11:33;;;;;;;19.33;7.20;;;;;;;19.41;100.00;99222.13;6248680;28;20122;-77
2021/09/17 09:14:34;;;;;;;15.03;6.33;;;;;;;19.44;100.00;99221.78;6248672;28;20042;-76
2021/09/17 09:17:35;;;;;;;22.43;7.20;;;;;;;19.42;100.00;99221.13;6280409;28;20048;-77
2021/09/17 09:20:41;;;;;;;18.53;6.80;;;;;;;19.51;100.00;99224.56;6263999;28;20048;-77
2021/09/17 09:23:43;;;;;;;22.40;6.43;;;;;;;19.59;100.00;99215.78;6280534;28;20096;-76
2021/09/17 09:26:45;;;;;;;16.70;6.32;;;;;;;19.71;100.00;99209.16;6248404;28;20049;-76
2021/09/17 09:29:47;;;;;;;;;;;;;;;19.88;100.00;99217.81;6264017;28;20044;-76
2021/09/17 09:32:47;;;;;;;17.85;7.03;;;;;;;20.21;100.00;99207.03;6248111;28;20440;-74
2021/09/17 09:36:00;;;;;;;20.37;6.57;;;;;;;20.39;100.00;99215.50;6263597;28;20510;-75
2021/09/17 09:39:03;;;;;;;17.27;6.57;;;;;;;20.24;100.00;99204.84;6278766;28;20049;-76
2021/09/17 09:42:07;;;;;;;16.38;6.70;;;;;;;20.17;100.00;99209.19;6280543;28;20045;-74
2021/09/17 09:45:18;;;;;;;18.95;6.88;;;;;;;20.02;100.00;99218.91;6248142;28;20492;-74
2021/09/17 09:48:19;;;;;;;15.35;7.22;;;;;;;20.04;100.00;99208.97;6247896;28;20069;-74
2021/09/17 09:51:20;;;;;;;22.88;7.60;;;;;;;20.15;100.00;99215.69;6246058;28;20064;-76
2021/09/17 09:54:23;;;;;;;19.50;7.57;;;;;;;20.28;100.00;99210.59;6247596;28;20049;-74
2021/09/17 09:57:26;;;;;;;20.20;8.23;;;;;;;20.45;100.00;99212.16;6247584;28;20045;-74
2021/09/17 10:00:28;;;;;;;12.88;6.65;;;;;;;20.75;100.00;99206.94;6247609;28;20108;-74
2021/09/17 10:03:29;;;;;;;15.75;6.40;;;;;;;20.98;100.00;99204.25;6247990;28;20558;-74
2021/09/17 10:06:38;;;;;;;12.65;5.82;;;;;;;21.07;100.00;99204.97;6247555;28;20060;-73
2021/09/17 10:09:40;;;;;;;13.90;6.32;;;;;;;20.98;100.00;99201.59;6247274;28;20046;-74
2021/09/17 10:12:41;;;;;;;17.42;4.90;;;;;;;20.80;100.00;99191.34;6279182;28;20118;-74
2021/09/17 10:15:43;;;;;;;14.03;4.37;;;;;;;20.86;100.00;99200.41;6246085;28;20492;-73
2021/09/17 10:18:45;;;;;;;12.27;4.43;;;;;;;20.88;100.00;99204.50;6262445;28;20056;-73
2021/09/17 10:21:45;;;;;;;12.25;4.55;;;;;;;20.85;100.00;99212.81;6279184;28;20050;-73
2021/09/17 10:24:48;;;;;;;14.90;5.20;;;;;;;21.44;100.00;99203.28;6279307;28;20061;-75
2021/09/17 10:28:11;;;;;;;11.32;5.07;;;;;;;21.64;100.00;99193.72;6246911;28;20504;-74
2021/09/17 10:31:16;;;;;;;10.98;5.00;;;;;;;21.40;100.00;99189.50;6246976;28;20092;-74
2021/09/17 10:34:45;;;;;;;9.10;4.97;;;;;;;21.60;100.00;99196.91;6245584;28;20048;-74
2021/09/17 10:38:04;;;;;;;9.80;4.50;;;;;;;21.65;100.00;99191.88;6246525;28;20111;-75
2021/09/17 10:41:06;;;;;;;9.82;4.40;;;;;;;21.72;100.00;99195.44;6246674;28;20103;-75
2021/09/17 10:44:07;;;;;;;5.97;4.10;;;;;;;22.42;100.00;99191.25;6278605;28;20095;-75
2021/09/17 10:47:39;;;;;;;6.90;3.37;;;;;;;22.94;93.35;99187.38;6278576;28;20069;-75
2021/09/17 10:50:55;;;;;;;8.25;2.88;;;;;;;22.73;88.42;99190.06;6278530;28;20446;-75
2021/09/17 10:53:58;;;;;;;3.10;2.20;;;;;;;22.76;87.18;99195.03;6244697;28;20049;-75
2021/09/17 10:57:02;;;;;;;3.13;2.20;;;;;;;22.85;84.61;99201.00;6246272;28;20037;-75
2021/09/17 11:00:05;;;;;;;4.38;2.00;;;;;;;22.77;83.11;99193.19;6246082;28;20042;-75
2021/09/17 11:03:07;;;;;;;5.68;1.88;;;;;;;22.66;84.74;99194.53;6245757;28;20385;-75
2021/09/17 11:09:54;;;;;;;3.95;1.50;;;;;;;23.27;81.70;99199.28;6245964;28;20282;-75
2021/09/17 11:13:05;;;;;;;1.25;1.15;;;;;;;23.03;80.61;99200.56;6244656;28;20057;-76
2021/09/17 11:16:14;;;;;;;4.40;1.20;;;;;;;22.62;82.63;99206.56;6244697;28;20045;-75
2021/09/17 11:19:17;;;;;;;1.60;1.17;;;;;;;22.95;80.32;99204.16;6245723;28;20068;-75
2021/09/17 11:22:18;;;;;;;1.30;1.10;;;;;;;22.56;80.95;99200.19;6277366;28;20049;-75
2021/09/17 11:25:32;;;;;;;0.93;0.90;;;;;;;23.22;74.73;99201.69;6260988;28;20038;-75
2021/09/17 11:28:33;;;;;;;2.03;0.80;;;;;;;24.05;75.77;99197.13;6245552;28;20096;-75
2021/09/17 11:31:42;;;;;;;7.38;0.40;;;;;;;24.53;63.20;99205.00;6277261;28;20116;-75
2021/09/17 11:34:43;;;;;;;0.30;0.13;;;;;;;24.58;59.06;99199.03;6245505;28;20523;-76
2021/09/17 11:38:02;;;;;;;1.10;0.30;;;;;;;24.92;64.01;99206.00;6277763;28;20061;-75
2021/09/17 11:41:03;;;;;;;1.77;0.40;;;;;;;24.93;61.34;99206.81;6277308;28;20043;-76
2021/09/17 11:44:04;;;;;;;5.80;0.57;;;;;;;25.19;63.63;99210.47;6245206;28;20203;-75
2021/09/17 11:47:10;;;;;;;0.50;0.50;;;;;;;24.73;62.46;99202.31;6277351;28;20527;-75
2021/09/17 11:50:15;;;;;;;1.02;0.70;;;;;;;25.05;66.75;99199.81;6245241;28;20042;-74
2021/09/17 11:53:16;;;;;;;0.30;0.30;;;;;;;25.53;62.12;99183.50;6245164;28;20049;-74
2021/09/17 11:56:17;;;;;;;2.72;0.50;;;;;;;25.64;59.90;99195.34;6260527;28;20091;-73
2021/09/17 11:59:38;;;;;;;0.80;0.63;;;;;;;25.50;59.54;99199.91;6277162;28;20116;-73
2021/09/17 12:02:41;;;;;;;2.78;0.40;;;;;;;25.44;61.21;99192.75;6245061;28;20045;-74
2021/09/17 12:05:43;;;;;;;1.33;0.50;;;;;;;25.42;61.60;99194.81;6245083;28;20040;-73
2021/09/17 12:08:45;;;;;;;3.83;0.38;;;;;;;25.66;58.03;99195.97;6245028;28;20045;-73
2021/09/17 12:11:56;;;;;;;0.57;0.30;;;;;;;25.81;56.95;99202.88;6276914;28;20381;-73
2021/09/17 12:14:56;;;;;;;0.47;0.47;;;;;;;25.89;56.98;99207.97;6228854;28;20041;-73
2021/09/17 12:18:00;;;;;;;1.08;0.50;;;;;;;25.86;58.58;99214.56;6265361;28;20072;-73
2021/09/17 12:21:04;;;;;;;0.40;0.40;;;;;;;25.72;57.14;99203.13;6249838;28;20407;-73
2021/09/17 12:24:22;;;;;;;0.45;0.45;;;;;;;25.66;57.66;99205.81;6248923;28;20500;-73
2021/09/17 12:27:29;;;;;;;1.20;0.30;;;;;;;25.55;59.95;99204.63;6250060;28;20042;-73
2021/09/17 12:30:32;;;;;;;0.30;0.30;;;;;;;25.45;57.98;99220.25;6248481;28;20045;-73
2021/09/17 12:33:33;;;;;;;0.28;0.28;;;;;;;25.02;60.64;99218.94;6264863;28;20523;-73
2021/09/17 12:36:36;;;;;;;5.55;0.80;;;;;;;24.30;63.41;99209.88;6281459;28;20507;-73
2021/09/17 12:39:37;;;;;;;0.47;0.40;;;;;;;23.91;64.80;99222.91;6248187;28;20065;-73
2021/09/17 12:42:37;;;;;;;1.90;0.50;;;;;;;23.66;64.06;99221.75;6249530;28;20487;-73
2021/09/17 12:45:43;;;;;;;1.73;0.22;;;;;;;23.60;64.41;99212.72;6281156;28;20042;-73
2021/09/17 12:48:47;;;;;;;0.65;0.43;;;;;;;23.62;64.83;99212.53;6249723;28;20133;-73
2021/09/17 12:51:56;;;;;;;0.93;0.38;;;;;;;23.64;62.82;99211.31;6280626;28;20060;-73
2021/09/17 12:54:57;;;;;;;0.63;0.20;;;;;;;23.54;63.97;99218.84;6248123;28;20150;-73
2021/09/17 12:58:04;;;;;;;0.37;0.27;;;;;;;23.30;63.29;99202.34;6264572;28;20476;-73
2021/09/17 13:01:08;;;;;;;1.85;0.40;;;;;;;23.28;66.16;99209.69;6248926;28;20050;-73
2021/09/17 13:04:09;;;;;;;2.00;0.40;;;;;;;23.32;67.88;99204.81;6248920;28;20076;-73
2021/09/17 13:07:10;;;;;;;0.40;0.40;;;;;;;23.44;66.88;99203.22;6280778;28;20033;-73
2021/09/17 13:10:11;;;;;;;1.20;0.30;;;;;;;23.43;65.52;99212.25;6264148;28;20067;-73
2021/09/17 13:13:12;;;;;;;4.97;0.40;;;;;;;23.30;66.89;99209.50;6263988;28;20439;-73
2021/09/17 13:16:16;;;;;;;;;;;;;;;23.10;66.43;99217.38;6249043;28;20042;-74
2021/09/17 13:19:17;;;;;;;3.03;0.38;;;;;;;22.87;65.36;99217.59;6248672;28;19921;-73
2021/09/17 13:22:18;;;;;;;1.58;0.30;;;;;;;22.80;68.06;99224.72;6248742;28;20408;-73
2021/09/17 13:25:20;;;;;;;0.43;0.43;;;;;;;22.76;66.75;99220.78;6280530;28;20401;-73
2021/09/17 13:28:21;;;;;;;1.02;0.50;;;;;;;22.74;69.56;99213.81;6247947;28;20075;-73
2021/09/17 13:31:22;;;;;;;0.75;0.28;;;;;;;22.72;69.22;99218.50;6247063;28;20045;-73
2021/09/17 13:34:23;;;;;;;4.53;0.30;;;;;;;22.70;69.44;99217.88;6263450;28;20107;-73
2021/09/17 13:37:24;;;;;;;0.50;0.40;;;;;;;22.66;69.74;99213.16;6248215;28;20766;-74
2021/09/17 13:40:27;;;;;;;2.97;0.47;;;;;;;22.59;71.04;99217.56;6279914;28;20482;-74
2021/09/17 13:43:27;;;;;;;0.70;0.35;;;;;;;22.50;70.93;99220.38;6280000;28;20072;-73
2021/09/17 13:46:28;;;;;;;0.50;0.50;;;;;;;22.51;71.42;99213.22;6280164;28;20484;-73
2021/09/17 13:49:29;;;;;;;0.77;0.40;;;;;;;22.52;69.99;99209.53;6279870;28;20275;-73
2021/09/17 13:52:31;;;;;;;1.77;0.40;;;;;;;22.54;71.00;99216.31;6263121;28;20054;-73
2021/09/17 13:55:32;;;;;;;1.35;0.50;;;;;;;22.59;73.35;99209.59;6279853;28;20083;-73
2021/09/17 13:58:33;;;;;;;0.73;0.60;;;;;;;22.56;75.32;99226.75;6247876;28;20045;-73
2021/09/17 14:01:34;;;;;;;0.70;0.50;;;;;;;22.35;75.70;99221.47;6262864;28;20061;-73
2021/09/17 14:04:35;;;;;;;2.45;0.55;;;;;;;22.27;75.67;99223.22;6247504;28;20124;-73
2021/09/17 14:07:37;;;;;;;1.48;0.60;;;;;;;22.22;77.03;99224.78;6262773;28;20049;-73